sensor_id;sensor_type;location;lat;lon;timestamp;P1;durP1;ratioP1;P2;durP2;ratioP2
23119;SDS011;11729;50.836;4.330;2023-07-13T00:00:11;13.40;;;5.20;;
23119;SDS011;11729;50.836;4.330;2023-07-13T00:02:40;13.13;;;5.63;;
23119;SDS011;11729;50.836;4.330;2023-07-13T00:05:07;9.15;;;5.55;;
23119;SDS011;11729;50.836;4.330;2023-07-13T00:07:32;10.80;;;5.60;;
23119;SDS011;11729;50.836;4.330;2023-07-13T00:09:58;10.68;;;6.22;;
23119;SDS011;11729;50.836;4.330;2023-07-13T00:12:26;10.20;;;5.68;;
23119;SDS011;11729;50.836;4.330;2023-07-13T00:14:55;10.70;;;5.65;;
23119;SDS011;11729;50.836;4.330;2023-07-13T00:17:22;9.68;;;6.00;;
23119;SDS011;11729;50.836;4.330;2023-07-13T00:19:48;11.68;;;5.60;;
23119;SDS011;11729;50.836;4.330;2023-07-13T00:22:14;10.15;;;5.75;;
23119;SDS011;11729;50.836;4.330;2023-07-13T00:24:40;15.38;;;6.40;;
23119;SDS011;11729;50.836;4.330;2023-07-13T00:27:07;10.93;;;5.75;;
23119;SDS011;11729;50.836;4.330;2023-07-13T00:29:36;9.10;;;5.93;;
23119;SDS011;11729;50.836;4.330;2023-07-13T00:32:03;13.68;;;6.55;;
23119;SDS011;11729;50.836;4.330;2023-07-13T00:34:29;17.35;;;6.57;;
23119;SDS011;11729;50.836;4.330;2023-07-13T00:36:55;14.23;;;6.25;;
23119;SDS011;11729;50.836;4.330;2023-07-13T00:39:21;13.88;;;6.35;;
23119;SDS011;11729;50.836;4.330;2023-07-13T00:41:48;11.43;;;5.82;;
23119;SDS011;11729;50.836;4.330;2023-07-13T00:44:14;13.93;;;6.20;;
23119;SDS011;11729;50.836;4.330;2023-07-13T00:46:40;11.57;;;6.45;;
23119;SDS011;11729;50.836;4.330;2023-07-13T00:49:07;11.95;;;6.03;;
23119;SDS011;11729;50.836;4.330;2023-07-13T00:51:36;12.68;;;5.75;;
23119;SDS011;11729;50.836;4.330;2023-07-13T00:54:11;9.68;;;5.70;;
23119;SDS011;11729;50.836;4.330;2023-07-13T00:56:40;11.20;;;6.28;;
23119;SDS011;11729;50.836;4.330;2023-07-13T00:59:08;15.90;;;5.95;;
23119;SDS011;11729;50.836;4.330;2023-07-13T01:01:36;14.10;;;6.15;;
23119;SDS011;11729;50.836;4.330;2023-07-13T01:04:03;13.95;;;5.60;;
23119;SDS011;11729;50.836;4.330;2023-07-13T01:06:28;14.70;;;5.95;;
23119;SDS011;11729;50.836;4.330;2023-07-13T01:08:55;10.88;;;5.60;;
23119;SDS011;11729;50.836;4.330;2023-07-13T01:11:22;13.02;;;6.03;;
23119;SDS011;11729;50.836;4.330;2023-07-13T01:13:48;11.02;;;6.13;;
23119;SDS011;11729;50.836;4.330;2023-07-13T01:16:15;9.52;;;5.85;;
23119;SDS011;11729;50.836;4.330;2023-07-13T01:18:47;17.25;;;5.65;;
23119;SDS011;11729;50.836;4.330;2023-07-13T01:21:12;14.00;;;5.88;;
23119;SDS011;11729;50.836;4.330;2023-07-13T01:23:38;14.90;;;5.80;;
23119;SDS011;11729;50.836;4.330;2023-07-13T01:26:03;17.98;;;5.72;;
23119;SDS011;11729;50.836;4.330;2023-07-13T01:28:29;12.35;;;6.20;;
23119;SDS011;11729;50.836;4.330;2023-07-13T01:30:56;12.57;;;5.72;;
23119;SDS011;11729;50.836;4.330;2023-07-13T01:33:24;14.93;;;6.03;;
23119;SDS011;11729;50.836;4.330;2023-07-13T01:35:50;13.32;;;5.68;;
23119;SDS011;11729;50.836;4.330;2023-07-13T01:38:16;12.32;;;5.90;;
23119;SDS011;11729;50.836;4.330;2023-07-13T01:40:44;12.95;;;6.18;;
23119;SDS011;11729;50.836;4.330;2023-07-13T01:43:10;11.45;;;5.50;;
23119;SDS011;11729;50.836;4.330;2023-07-13T01:45:36;14.70;;;5.93;;
23119;SDS011;11729;50.836;4.330;2023-07-13T01:48:01;15.32;;;6.07;;
23119;SDS011;11729;50.836;4.330;2023-07-13T01:50:27;16.65;;;5.90;;
23119;SDS011;11729;50.836;4.330;2023-07-13T01:52:53;15.30;;;5.88;;
23119;SDS011;11729;50.836;4.330;2023-07-13T01:55:19;13.43;;;6.32;;
23119;SDS011;11729;50.836;4.330;2023-07-13T01:57:46;11.32;;;5.97;;
23119;SDS011;11729;50.836;4.330;2023-07-13T02:00:13;14.15;;;6.05;;
23119;SDS011;11729;50.836;4.330;2023-07-13T02:02:39;16.40;;;6.77;;
23119;SDS011;11729;50.836;4.330;2023-07-13T02:05:04;15.10;;;6.15;;
23119;SDS011;11729;50.836;4.330;2023-07-13T02:07:31;15.40;;;6.15;;
23119;SDS011;11729;50.836;4.330;2023-07-13T02:09:57;14.50;;;6.35;;
23119;SDS011;11729;50.836;4.330;2023-07-13T02:12:22;12.82;;;5.93;;
23119;SDS011;11729;50.836;4.330;2023-07-13T02:14:48;19.05;;;6.80;;
23119;SDS011;11729;50.836;4.330;2023-07-13T02:17:14;13.35;;;6.22;;
23119;SDS011;11729;50.836;4.330;2023-07-13T02:19:39;15.05;;;6.60;;
23119;SDS011;11729;50.836;4.330;2023-07-13T02:22:05;13.27;;;6.10;;
23119;SDS011;11729;50.836;4.330;2023-07-13T02:24:31;14.98;;;6.75;;
23119;SDS011;11729;50.836;4.330;2023-07-13T02:26:57;13.60;;;6.60;;
23119;SDS011;11729;50.836;4.330;2023-07-13T02:29:22;17.48;;;6.13;;
23119;SDS011;11729;50.836;4.330;2023-07-13T02:31:48;13.77;;;6.50;;
23119;SDS011;11729;50.836;4.330;2023-07-13T02:34:13;17.95;;;6.30;;
23119;SDS011;11729;50.836;4.330;2023-07-13T02:36:39;14.32;;;6.40;;
23119;SDS011;11729;50.836;4.330;2023-07-13T02:39:06;14.30;;;6.50;;
23119;SDS011;11729;50.836;4.330;2023-07-13T02:41:31;16.08;;;6.00;;
23119;SDS011;11729;50.836;4.330;2023-07-13T02:43:58;15.82;;;6.82;;
23119;SDS011;11729;50.836;4.330;2023-07-13T02:46:35;19.30;;;6.88;;
23119;SDS011;11729;50.836;4.330;2023-07-13T02:49:02;13.45;;;6.53;;
23119;SDS011;11729;50.836;4.330;2023-07-13T02:51:28;19.45;;;6.60;;
23119;SDS011;11729;50.836;4.330;2023-07-13T02:53:54;15.43;;;6.22;;
23119;SDS011;11729;50.836;4.330;2023-07-13T02:56:23;14.50;;;6.78;;
23119;SDS011;11729;50.836;4.330;2023-07-13T02:58:51;10.13;;;6.35;;
23119;SDS011;11729;50.836;4.330;2023-07-13T03:01:17;19.70;;;7.75;;
23119;SDS011;11729;50.836;4.330;2023-07-13T03:03:44;16.92;;;6.53;;
23119;SDS011;11729;50.836;4.330;2023-07-13T03:06:11;12.80;;;6.47;;
23119;SDS011;11729;50.836;4.330;2023-07-13T03:08:37;11.23;;;6.45;;
23119;SDS011;11729;50.836;4.330;2023-07-13T03:11:05;22.20;;;6.88;;
23119;SDS011;11729;50.836;4.330;2023-07-13T03:13:33;14.45;;;6.80;;
23119;SDS011;11729;50.836;4.330;2023-07-13T03:15:59;22.45;;;7.10;;
23119;SDS011;11729;50.836;4.330;2023-07-13T03:18:26;15.70;;;6.40;;
23119;SDS011;11729;50.836;4.330;2023-07-13T03:20:53;16.15;;;6.93;;
23119;SDS011;11729;50.836;4.330;2023-07-13T03:23:19;15.13;;;6.43;;
23119;SDS011;11729;50.836;4.330;2023-07-13T03:25:46;19.27;;;6.68;;
23119;SDS011;11729;50.836;4.330;2023-07-13T03:28:12;15.85;;;7.28;;
23119;SDS011;11729;50.836;4.330;2023-07-13T03:30:38;16.92;;;7.18;;
23119;SDS011;11729;50.836;4.330;2023-07-13T03:33:04;17.15;;;7.10;;
23119;SDS011;11729;50.836;4.330;2023-07-13T03:35:29;19.23;;;6.85;;
23119;SDS011;11729;50.836;4.330;2023-07-13T03:37:55;19.92;;;6.95;;
23119;SDS011;11729;50.836;4.330;2023-07-13T03:40:22;17.63;;;7.45;;
23119;SDS011;11729;50.836;4.330;2023-07-13T03:42:49;19.15;;;6.72;;
23119;SDS011;11729;50.836;4.330;2023-07-13T03:45:15;12.95;;;7.05;;
23119;SDS011;11729;50.836;4.330;2023-07-13T03:47:40;16.05;;;7.07;;
23119;SDS011;11729;50.836;4.330;2023-07-13T03:50:06;12.68;;;6.70;;
23119;SDS011;11729;50.836;4.330;2023-07-13T03:52:32;19.35;;;6.70;;
23119;SDS011;11729;50.836;4.330;2023-07-13T03:54:58;21.20;;;7.25;;
23119;SDS011;11729;50.836;4.330;2023-07-13T03:57:24;15.40;;;6.95;;
23119;SDS011;11729;50.836;4.330;2023-07-13T03:59:49;16.95;;;6.68;;
23119;SDS011;11729;50.836;4.330;2023-07-13T04:02:15;18.77;;;6.97;;
23119;SDS011;11729;50.836;4.330;2023-07-13T04:04:40;17.42;;;6.72;;
23119;SDS011;11729;50.836;4.330;2023-07-13T04:07:07;14.98;;;6.40;;
23119;SDS011;11729;50.836;4.330;2023-07-13T04:09:33;15.90;;;6.63;;
23119;SDS011;11729;50.836;4.330;2023-07-13T04:11:59;23.75;;;7.18;;
23119;SDS011;11729;50.836;4.330;2023-07-13T04:14:25;16.98;;;6.95;;
23119;SDS011;11729;50.836;4.330;2023-07-13T04:16:50;14.40;;;7.10;;
23119;SDS011;11729;50.836;4.330;2023-07-13T04:19:16;13.25;;;6.57;;
23119;SDS011;11729;50.836;4.330;2023-07-13T04:21:42;16.88;;;6.75;;
23119;SDS011;11729;50.836;4.330;2023-07-13T04:24:08;14.50;;;6.85;;
23119;SDS011;11729;50.836;4.330;2023-07-13T04:26:34;19.90;;;7.15;;
23119;SDS011;11729;50.836;4.330;2023-07-13T04:29:04;15.85;;;7.43;;
23119;SDS011;11729;50.836;4.330;2023-07-13T04:31:31;15.07;;;7.43;;
23119;SDS011;11729;50.836;4.330;2023-07-13T04:33:57;10.65;;;6.60;;
23119;SDS011;11729;50.836;4.330;2023-07-13T04:36:24;15.80;;;7.50;;
23119;SDS011;11729;50.836;4.330;2023-07-13T04:38:52;14.93;;;6.65;;
23119;SDS011;11729;50.836;4.330;2023-07-13T04:41:19;17.60;;;7.63;;
23119;SDS011;11729;50.836;4.330;2023-07-13T04:43:45;24.17;;;7.90;;
23119;SDS011;11729;50.836;4.330;2023-07-13T04:46:11;23.95;;;8.07;;
23119;SDS011;11729;50.836;4.330;2023-07-13T04:48:39;20.23;;;7.57;;
23119;SDS011;11729;50.836;4.330;2023-07-13T04:51:06;16.33;;;6.93;;
23119;SDS011;11729;50.836;4.330;2023-07-13T04:53:32;17.45;;;7.43;;
23119;SDS011;11729;50.836;4.330;2023-07-13T04:55:59;18.63;;;8.13;;
23119;SDS011;11729;50.836;4.330;2023-07-13T04:58:26;17.75;;;7.50;;
23119;SDS011;11729;50.836;4.330;2023-07-13T05:00:52;20.85;;;7.35;;
23119;SDS011;11729;50.836;4.330;2023-07-13T05:03:18;24.77;;;7.47;;
23119;SDS011;11729;50.836;4.330;2023-07-13T05:05:55;20.40;;;7.65;;
23119;SDS011;11729;50.836;4.330;2023-07-13T05:08:23;16.73;;;7.47;;
23119;SDS011;11729;50.836;4.330;2023-07-13T05:10:49;15.70;;;6.80;;
23119;SDS011;11729;50.836;4.330;2023-07-13T05:13:15;16.73;;;7.30;;
23119;SDS011;11729;50.836;4.330;2023-07-13T05:15:41;15.77;;;7.32;;
23119;SDS011;11729;50.836;4.330;2023-07-13T05:18:07;22.63;;;7.57;;
23119;SDS011;11729;50.836;4.330;2023-07-13T05:20:32;20.67;;;7.20;;
23119;SDS011;11729;50.836;4.330;2023-07-13T05:22:58;29.05;;;6.70;;
23119;SDS011;11729;50.836;4.330;2023-07-13T05:25:24;14.60;;;7.70;;
23119;SDS011;11729;50.836;4.330;2023-07-13T05:27:49;18.80;;;7.05;;
23119;SDS011;11729;50.836;4.330;2023-07-13T05:30:15;20.70;;;7.07;;
23119;SDS011;11729;50.836;4.330;2023-07-13T05:32:41;21.90;;;7.05;;
23119;SDS011;11729;50.836;4.330;2023-07-13T05:35:06;13.23;;;6.60;;
23119;SDS011;11729;50.836;4.330;2023-07-13T05:37:33;22.90;;;7.30;;
23119;SDS011;11729;50.836;4.330;2023-07-13T05:39:58;21.88;;;7.10;;
23119;SDS011;11729;50.836;4.330;2023-07-13T05:42:24;13.98;;;6.28;;
23119;SDS011;11729;50.836;4.330;2023-07-13T05:44:50;19.58;;;6.90;;
23119;SDS011;11729;50.836;4.330;2023-07-13T05:47:16;17.80;;;6.70;;
23119;SDS011;11729;50.836;4.330;2023-07-13T05:49:41;17.40;;;7.13;;
23119;SDS011;11729;50.836;4.330;2023-07-13T05:52:07;15.63;;;6.88;;
23119;SDS011;11729;50.836;4.330;2023-07-13T05:54:33;16.67;;;6.88;;
23119;SDS011;11729;50.836;4.330;2023-07-13T05:56:58;14.32;;;6.00;;
23119;SDS011;11729;50.836;4.330;2023-07-13T05:59:24;18.60;;;6.53;;
23119;SDS011;11729;50.836;4.330;2023-07-13T06:01:50;18.98;;;6.85;;
23119;SDS011;11729;50.836;4.330;2023-07-13T06:04:17;19.70;;;6.78;;
23119;SDS011;11729;50.836;4.330;2023-07-13T06:06:43;15.23;;;6.70;;
23119;SDS011;11729;50.836;4.330;2023-07-13T06:09:09;27.33;;;7.40;;
23119;SDS011;11729;50.836;4.330;2023-07-13T06:11:34;22.02;;;6.47;;
23119;SDS011;11729;50.836;4.330;2023-07-13T06:14:00;16.92;;;6.25;;
23119;SDS011;11729;50.836;4.330;2023-07-13T06:16:25;15.52;;;6.32;;
23119;SDS011;11729;50.836;4.330;2023-07-13T06:18:51;23.52;;;6.70;;
23119;SDS011;11729;50.836;4.330;2023-07-13T06:21:18;15.93;;;6.32;;
23119;SDS011;11729;50.836;4.330;2023-07-13T06:23:45;17.45;;;6.72;;
23119;SDS011;11729;50.836;4.330;2023-07-13T06:26:15;16.65;;;6.78;;
23119;SDS011;11729;50.836;4.330;2023-07-13T06:28:41;23.00;;;7.03;;
23119;SDS011;11729;50.836;4.330;2023-07-13T06:31:08;13.60;;;6.45;;
23119;SDS011;11729;50.836;4.330;2023-07-13T06:33:35;14.82;;;6.38;;
23119;SDS011;11729;50.836;4.330;2023-07-13T06:36:02;12.63;;;6.15;;
23119;SDS011;11729;50.836;4.330;2023-07-13T06:38:29;15.15;;;6.15;;
23119;SDS011;11729;50.836;4.330;2023-07-13T06:40:55;17.92;;;6.70;;
23119;SDS011;11729;50.836;4.330;2023-07-13T06:43:20;19.20;;;6.07;;
23119;SDS011;11729;50.836;4.330;2023-07-13T06:45:46;16.70;;;6.57;;
23119;SDS011;11729;50.836;4.330;2023-07-13T06:48:15;18.08;;;6.57;;
23119;SDS011;11729;50.836;4.330;2023-07-13T06:50:42;18.10;;;5.97;;
23119;SDS011;11729;50.836;4.330;2023-07-13T06:53:08;14.20;;;6.30;;
23119;SDS011;11729;50.836;4.330;2023-07-13T06:55:35;14.43;;;6.45;;
23119;SDS011;11729;50.836;4.330;2023-07-13T06:58:00;12.93;;;6.05;;
23119;SDS011;11729;50.836;4.330;2023-07-13T07:00:26;15.38;;;6.60;;
23119;SDS011;11729;50.836;4.330;2023-07-13T07:02:52;13.35;;;6.40;;
23119;SDS011;11729;50.836;4.330;2023-07-13T07:05:18;18.25;;;6.32;;
23119;SDS011;11729;50.836;4.330;2023-07-13T07:07:46;15.77;;;6.43;;
23119;SDS011;11729;50.836;4.330;2023-07-13T07:10:12;16.90;;;6.32;;
23119;SDS011;11729;50.836;4.330;2023-07-13T07:12:37;17.75;;;6.18;;
23119;SDS011;11729;50.836;4.330;2023-07-13T07:15:03;15.90;;;6.22;;
23119;SDS011;11729;50.836;4.330;2023-07-13T07:17:29;15.95;;;6.32;;
23119;SDS011;11729;50.836;4.330;2023-07-13T07:19:55;12.45;;;5.80;;
23119;SDS011;11729;50.836;4.330;2023-07-13T07:22:21;15.38;;;6.13;;
23119;SDS011;11729;50.836;4.330;2023-07-13T07:24:46;13.13;;;6.05;;
23119;SDS011;11729;50.836;4.330;2023-07-13T07:27:12;12.82;;;5.90;;
23119;SDS011;11729;50.836;4.330;2023-07-13T07:29:38;12.65;;;5.72;;
23119;SDS011;11729;50.836;4.330;2023-07-13T07:32:04;10.98;;;6.10;;
23119;SDS011;11729;50.836;4.330;2023-07-13T07:34:30;16.42;;;5.38;;
23119;SDS011;11729;50.836;4.330;2023-07-13T07:36:58;15.73;;;5.75;;
23119;SDS011;11729;50.836;4.330;2023-07-13T07:39:25;16.80;;;5.80;;
23119;SDS011;11729;50.836;4.330;2023-07-13T07:41:51;11.07;;;5.53;;
23119;SDS011;11729;50.836;4.330;2023-07-13T07:44:17;11.95;;;5.70;;
23119;SDS011;11729;50.836;4.330;2023-07-13T07:46:43;14.82;;;5.22;;
23119;SDS011;11729;50.836;4.330;2023-07-13T07:49:09;11.30;;;5.63;;
23119;SDS011;11729;50.836;4.330;2023-07-13T07:51:35;11.60;;;5.90;;
23119;SDS011;11729;50.836;4.330;2023-07-13T07:54:01;13.38;;;5.57;;
23119;SDS011;11729;50.836;4.330;2023-07-13T07:56:28;9.88;;;5.05;;
23119;SDS011;11729;50.836;4.330;2023-07-13T07:58:54;12.82;;;5.53;;
23119;SDS011;11729;50.836;4.330;2023-07-13T08:01:20;13.82;;;5.57;;
23119;SDS011;11729;50.836;4.330;2023-07-13T08:03:46;11.48;;;5.47;;
23119;SDS011;11729;50.836;4.330;2023-07-13T08:06:12;8.82;;;4.97;;
23119;SDS011;11729;50.836;4.330;2023-07-13T08:08:38;12.57;;;5.45;;
23119;SDS011;11729;50.836;4.330;2023-07-13T08:11:04;9.10;;;5.07;;
23119;SDS011;11729;50.836;4.330;2023-07-13T08:13:32;10.77;;;5.00;;
23119;SDS011;11729;50.836;4.330;2023-07-13T08:15:58;11.95;;;5.20;;
23119;SDS011;11729;50.836;4.330;2023-07-13T08:18:24;13.18;;;5.72;;
23119;SDS011;11729;50.836;4.330;2023-07-13T08:20:50;15.27;;;5.53;;
23119;SDS011;11729;50.836;4.330;2023-07-13T08:23:15;11.75;;;5.20;;
23119;SDS011;11729;50.836;4.330;2023-07-13T08:25:42;13.85;;;5.53;;
23119;SDS011;11729;50.836;4.330;2023-07-13T08:28:15;9.25;;;5.00;;
23119;SDS011;11729;50.836;4.330;2023-07-13T08:30:40;11.88;;;5.63;;
23119;SDS011;11729;50.836;4.330;2023-07-13T08:33:06;10.48;;;5.57;;
23119;SDS011;11729;50.836;4.330;2023-07-13T08:35:32;22.95;;;6.25;;
23119;SDS011;11729;50.836;4.330;2023-07-13T08:37:57;21.50;;;5.60;;
23119;SDS011;11729;50.836;4.330;2023-07-13T08:42:56;11.18;;;5.60;;
23119;SDS011;11729;50.836;4.330;2023-07-13T08:48:11;11.95;;;5.18;;
23119;SDS011;11729;50.836;4.330;2023-07-13T08:53:25;11.60;;;5.18;;
23119;SDS011;11729;50.836;4.330;2023-07-13T08:55:59;10.90;;;5.07;;
23119;SDS011;11729;50.836;4.330;2023-07-13T08:58:26;13.35;;;5.20;;
23119;SDS011;11729;50.836;4.330;2023-07-13T09:04:11;8.13;;;4.75;;
23119;SDS011;11729;50.836;4.330;2023-07-13T09:07:26;9.65;;;4.80;;
23119;SDS011;11729;50.836;4.330;2023-07-13T09:12:57;10.77;;;5.00;;
23119;SDS011;11729;50.836;4.330;2023-07-13T09:15:39;10.23;;;5.10;;
23119;SDS011;11729;50.836;4.330;2023-07-13T09:18:10;8.85;;;4.82;;
23119;SDS011;11729;50.836;4.330;2023-07-13T09:21:02;5.80;;;4.50;;
23119;SDS011;11729;50.836;4.330;2023-07-13T09:23:32;13.57;;;5.68;;
23119;SDS011;11729;50.836;4.330;2023-07-13T09:28:46;9.23;;;4.72;;
23119;SDS011;11729;50.836;4.330;2023-07-13T09:31:15;14.43;;;4.68;;
23119;SDS011;11729;50.836;4.330;2023-07-13T09:34:00;11.23;;;5.47;;
23119;SDS011;11729;50.836;4.330;2023-07-13T09:36:27;13.23;;;5.13;;
23119;SDS011;11729;50.836;4.330;2023-07-13T09:41:28;12.23;;;5.20;;
23119;SDS011;11729;50.836;4.330;2023-07-13T09:44:01;14.02;;;5.18;;
23119;SDS011;11729;50.836;4.330;2023-07-13T09:46:27;18.33;;;5.47;;
23119;SDS011;11729;50.836;4.330;2023-07-13T09:48:53;10.00;;;4.88;;
23119;SDS011;11729;50.836;4.330;2023-07-13T09:51:21;10.90;;;4.68;;
23119;SDS011;11729;50.836;4.330;2023-07-13T09:53:46;10.63;;;5.10;;
23119;SDS011;11729;50.836;4.330;2023-07-13T09:56:23;15.13;;;5.63;;
23119;SDS011;11729;50.836;4.330;2023-07-13T09:58:51;11.90;;;4.80;;
23119;SDS011;11729;50.836;4.330;2023-07-13T10:01:30;11.27;;;4.95;;
23119;SDS011;11729;50.836;4.330;2023-07-13T10:03:58;14.20;;;4.82;;
23119;SDS011;11729;50.836;4.330;2023-07-13T10:06:24;11.23;;;4.93;;
23119;SDS011;11729;50.836;4.330;2023-07-13T10:08:55;6.32;;;4.40;;
23119;SDS011;11729;50.836;4.330;2023-07-13T10:11:23;7.78;;;4.80;;
23119;SDS011;11729;50.836;4.330;2023-07-13T10:13:55;8.63;;;4.55;;
23119;SDS011;11729;50.836;4.330;2023-07-13T10:16:26;7.38;;;4.47;;
23119;SDS011;11729;50.836;4.330;2023-07-13T10:21:47;9.70;;;4.75;;
23119;SDS011;11729;50.836;4.330;2023-07-13T10:24:20;7.22;;;4.38;;
23119;SDS011;11729;50.836;4.330;2023-07-13T10:27:25;7.90;;;4.57;;
23119;SDS011;11729;50.836;4.330;2023-07-13T10:32:37;9.20;;;4.80;;
23119;SDS011;11729;50.836;4.330;2023-07-13T10:35:03;8.32;;;4.78;;
23119;SDS011;11729;50.836;4.330;2023-07-13T10:37:41;7.53;;;4.50;;
23119;SDS011;11729;50.836;4.330;2023-07-13T10:40:12;9.23;;;4.60;;
23119;SDS011;11729;50.836;4.330;2023-07-13T10:42:44;8.80;;;4.65;;
23119;SDS011;11729;50.836;4.330;2023-07-13T10:45:22;7.97;;;4.68;;
23119;SDS011;11729;50.836;4.330;2023-07-13T10:47:49;12.93;;;4.70;;
23119;SDS011;11729;50.836;4.330;2023-07-13T10:50:21;6.18;;;4.75;;
23119;SDS011;11729;50.836;4.330;2023-07-13T10:52:53;6.65;;;4.70;;
23119;SDS011;11729;50.836;4.330;2023-07-13T10:55:33;8.27;;;4.68;;
23119;SDS011;11729;50.836;4.330;2023-07-13T11:00:50;7.95;;;4.72;;
23119;SDS011;11729;50.836;4.330;2023-07-13T11:03:35;10.32;;;4.97;;
23119;SDS011;11729;50.836;4.330;2023-07-13T11:09:25;10.50;;;5.00;;
23119;SDS011;11729;50.836;4.330;2023-07-13T11:11:56;6.70;;;4.45;;
23119;SDS011;11729;50.836;4.330;2023-07-13T11:22:47;10.68;;;4.78;;
23119;SDS011;11729;50.836;4.330;2023-07-13T11:27:52;9.52;;;5.10;;
23119;SDS011;11729;50.836;4.330;2023-07-13T11:36:06;9.95;;;4.50;;
23119;SDS011;11729;50.836;4.330;2023-07-13T11:38:39;6.38;;;4.45;;
23119;SDS011;11729;50.836;4.330;2023-07-13T11:41:13;9.52;;;4.40;;
23119;SDS011;11729;50.836;4.330;2023-07-13T11:44:01;13.18;;;4.60;;
23119;SDS011;11729;50.836;4.330;2023-07-13T11:46:36;12.48;;;5.00;;
23119;SDS011;11729;50.836;4.330;2023-07-13T11:49:04;7.57;;;4.68;;
23119;SDS011;11729;50.836;4.330;2023-07-13T11:51:31;5.88;;;4.38;;
23119;SDS011;11729;50.836;4.330;2023-07-13T11:54:01;5.95;;;4.20;;
23119;SDS011;11729;50.836;4.330;2023-07-13T11:56:39;7.82;;;4.70;;
23119;SDS011;11729;50.836;4.330;2023-07-13T11:59:07;16.83;;;4.70;;
23119;SDS011;11729;50.836;4.330;2023-07-13T12:01:36;9.18;;;4.60;;
23119;SDS011;11729;50.836;4.330;2023-07-13T12:04:11;9.63;;;5.35;;
23119;SDS011;11729;50.836;4.330;2023-07-13T12:06:47;7.10;;;4.78;;
23119;SDS011;11729;50.836;4.330;2023-07-13T12:09:25;9.38;;;4.93;;
23119;SDS011;11729;50.836;4.330;2023-07-13T12:11:52;8.93;;;4.63;;
23119;SDS011;11729;50.836;4.330;2023-07-13T12:14:19;6.85;;;4.75;;
23119;SDS011;11729;50.836;4.330;2023-07-13T12:16:45;13.55;;;5.55;;
23119;SDS011;11729;50.836;4.330;2023-07-13T12:19:30;7.38;;;5.10;;
23119;SDS011;11729;50.836;4.330;2023-07-13T12:21:57;8.80;;;4.75;;
23119;SDS011;11729;50.836;4.330;2023-07-13T12:24:25;8.73;;;4.72;;
23119;SDS011;11729;50.836;4.330;2023-07-13T12:27:33;5.05;;;4.50;;
23119;SDS011;11729;50.836;4.330;2023-07-13T12:30:04;6.93;;;4.17;;
23119;SDS011;11729;50.836;4.330;2023-07-13T12:32:56;5.78;;;4.60;;
23119;SDS011;11729;50.836;4.330;2023-07-13T12:35:42;8.15;;;4.95;;
23119;SDS011;11729;50.836;4.330;2023-07-13T12:38:14;8.15;;;5.05;;
23119;SDS011;11729;50.836;4.330;2023-07-13T12:40:41;6.57;;;5.00;;
23119;SDS011;11729;50.836;4.330;2023-07-13T12:43:13;6.93;;;4.97;;
23119;SDS011;11729;50.836;4.330;2023-07-13T12:45:54;8.13;;;5.75;;
23119;SDS011;11729;50.836;4.330;2023-07-13T12:48:21;7.93;;;5.40;;
23119;SDS011;11729;50.836;4.330;2023-07-13T12:50:47;5.72;;;4.93;;
23119;SDS011;11729;50.836;4.330;2023-07-13T12:53:16;8.35;;;5.60;;
23119;SDS011;11729;50.836;4.330;2023-07-13T12:55:52;8.85;;;5.65;;
23119;SDS011;11729;50.836;4.330;2023-07-13T12:58:36;5.88;;;5.35;;
23119;SDS011;11729;50.836;4.330;2023-07-13T13:01:05;5.95;;;5.20;;
23119;SDS011;11729;50.836;4.330;2023-07-13T13:03:36;6.30;;;5.18;;
23119;SDS011;11729;50.836;4.330;2023-07-13T13:08:43;6.85;;;5.20;;
23119;SDS011;11729;50.836;4.330;2023-07-13T13:11:14;5.32;;;4.53;;
23119;SDS011;11729;50.836;4.330;2023-07-13T13:13:43;6.72;;;5.20;;
23119;SDS011;11729;50.836;4.330;2023-07-13T13:18:47;7.30;;;5.57;;
23119;SDS011;11729;50.836;4.330;2023-07-13T13:21:14;7.82;;;5.50;;
23119;SDS011;11729;50.836;4.330;2023-07-13T13:23:41;6.18;;;5.40;;
23119;SDS011;11729;50.836;4.330;2023-07-13T13:26:10;6.78;;;4.88;;
23119;SDS011;11729;50.836;4.330;2023-07-13T13:28:36;8.25;;;5.00;;
23119;SDS011;11729;50.836;4.330;2023-07-13T13:31:02;5.40;;;4.57;;
23119;SDS011;11729;50.836;4.330;2023-07-13T13:33:28;5.97;;;4.95;;
23119;SDS011;11729;50.836;4.330;2023-07-13T13:35:55;6.40;;;4.77;;
23119;SDS011;11729;50.836;4.330;2023-07-13T13:38:24;5.65;;;4.57;;
23119;SDS011;11729;50.836;4.330;2023-07-13T13:40:52;4.63;;;4.20;;
23119;SDS011;11729;50.836;4.330;2023-07-13T13:43:22;5.18;;;4.50;;
23119;SDS011;11729;50.836;4.330;2023-07-13T13:45:55;9.98;;;4.60;;
23119;SDS011;11729;50.836;4.330;2023-07-13T13:48:33;6.72;;;4.97;;
23119;SDS011;11729;50.836;4.330;2023-07-13T13:51:01;5.30;;;4.72;;
23119;SDS011;11729;50.836;4.330;2023-07-13T13:53:37;6.72;;;4.30;;
23119;SDS011;11729;50.836;4.330;2023-07-13T13:56:03;5.35;;;4.38;;
23119;SDS011;11729;50.836;4.330;2023-07-13T13:58:30;8.48;;;4.80;;
23119;SDS011;11729;50.836;4.330;2023-07-13T14:00:56;8.45;;;4.88;;
23119;SDS011;11729;50.836;4.330;2023-07-13T14:03:23;6.43;;;4.82;;
23119;SDS011;11729;50.836;4.330;2023-07-13T14:05:49;5.38;;;4.68;;
23119;SDS011;11729;50.836;4.330;2023-07-13T14:08:16;5.22;;;4.80;;
23119;SDS011;11729;50.836;4.330;2023-07-13T14:10:46;5.13;;;4.55;;
23119;SDS011;11729;50.836;4.330;2023-07-13T14:15:48;8.90;;;4.90;;
23119;SDS011;11729;50.836;4.330;2023-07-13T14:18:14;5.20;;;4.68;;
23119;SDS011;11729;50.836;4.330;2023-07-13T14:20:43;7.30;;;4.28;;
23119;SDS011;11729;50.836;4.330;2023-07-13T14:23:10;9.52;;;4.95;;
23119;SDS011;11729;50.836;4.330;2023-07-13T14:25:35;5.88;;;4.63;;
23119;SDS011;11729;50.836;4.330;2023-07-13T14:28:04;6.45;;;4.90;;
23119;SDS011;11729;50.836;4.330;2023-07-13T14:30:49;11.02;;;5.07;;
23119;SDS011;11729;50.836;4.330;2023-07-13T14:33:16;8.13;;;4.93;;
23119;SDS011;11729;50.836;4.330;2023-07-13T14:35:42;5.70;;;4.80;;
23119;SDS011;11729;50.836;4.330;2023-07-13T14:38:11;6.28;;;4.97;;
23119;SDS011;11729;50.836;4.330;2023-07-13T14:40:40;5.82;;;4.65;;
23119;SDS011;11729;50.836;4.330;2023-07-13T14:43:09;6.20;;;4.97;;
23119;SDS011;11729;50.836;4.330;2023-07-13T14:45:38;6.43;;;4.80;;
23119;SDS011;11729;50.836;4.330;2023-07-13T14:48:30;9.82;;;4.75;;
23119;SDS011;11729;50.836;4.330;2023-07-13T14:50:58;7.32;;;4.82;;
23119;SDS011;11729;50.836;4.330;2023-07-13T14:53:25;6.30;;;4.75;;
23119;SDS011;11729;50.836;4.330;2023-07-13T14:55:54;6.93;;;5.15;;
23119;SDS011;11729;50.836;4.330;2023-07-13T14:58:20;9.43;;;7.93;;
23119;SDS011;11729;50.836;4.330;2023-07-13T15:00:45;6.38;;;5.20;;
23119;SDS011;11729;50.836;4.330;2023-07-13T15:03:19;10.25;;;5.80;;
23119;SDS011;11729;50.836;4.330;2023-07-13T15:05:47;5.63;;;4.85;;
23119;SDS011;11729;50.836;4.330;2023-07-13T15:08:14;7.75;;;4.90;;
23119;SDS011;11729;50.836;4.330;2023-07-13T15:10:40;7.43;;;5.13;;
23119;SDS011;11729;50.836;4.330;2023-07-13T15:13:17;5.57;;;4.60;;
23119;SDS011;11729;50.836;4.330;2023-07-13T15:15:49;6.53;;;4.45;;
23119;SDS011;11729;50.836;4.330;2023-07-13T15:18:18;4.72;;;4.32;;
23119;SDS011;11729;50.836;4.330;2023-07-13T15:20:46;7.05;;;4.47;;
23119;SDS011;11729;50.836;4.330;2023-07-13T15:23:13;10.10;;;5.00;;
23119;SDS011;11729;50.836;4.330;2023-07-13T15:25:40;9.88;;;5.07;;
23119;SDS011;11729;50.836;4.330;2023-07-13T15:28:07;5.28;;;4.72;;
23119;SDS011;11729;50.836;4.330;2023-07-13T15:30:38;8.27;;;4.90;;
23119;SDS011;11729;50.836;4.330;2023-07-13T15:33:14;5.20;;;4.65;;
23119;SDS011;11729;50.836;4.330;2023-07-13T15:35:44;6.13;;;4.78;;
23119;SDS011;11729;50.836;4.330;2023-07-13T15:38:13;8.73;;;5.05;;
23119;SDS011;11729;50.836;4.330;2023-07-13T15:40:43;6.38;;;5.00;;